createdAt,value
2023-05-14T00:00:15.969Z,10.79
2023-05-14T00:03:19.471Z,10.79
2023-05-14T00:06:23.011Z,10.73
2023-05-14T00:09:26.513Z,10.61
2023-05-14T00:12:30.234Z,10.59
2023-05-14T00:15:35.184Z,10.56
2023-05-14T00:18:38.783Z,10.49
2023-05-14T00:21:42.299Z,10.17
2023-05-14T00:24:45.976Z,10.13
2023-05-14T00:27:49.478Z,9.90
2023-05-14T00:30:54.358Z,9.81
2023-05-14T00:33:57.902Z,9.73
2023-05-14T00:37:01.510Z,9.64
2023-05-14T00:40:06.909Z,9.65
2023-05-14T00:43:10.887Z,9.61
2023-05-14T00:46:17.322Z,9.66
2023-05-14T00:49:21.376Z,9.66
2023-05-14T00:52:25.152Z,9.74
2023-05-14T00:55:31.630Z,9.77
2023-05-14T00:58:35.461Z,9.74
2023-05-14T01:01:41.094Z,9.74
2023-05-14T01:04:44.751Z,9.76
2023-05-14T01:08:00.262Z,9.73
2023-05-14T01:11:12.573Z,9.70
2023-05-14T01:14:31.832Z,9.39
2023-05-14T01:17:50.025Z,9.29
2023-05-14T01:20:55.008Z,9.34
2023-05-14T01:23:59.882Z,9.38
2023-05-14T01:27:11.716Z,9.30
2023-05-14T01:30:23.110Z,9.27
2023-05-14T01:33:30.489Z,9.08
2023-05-14T01:36:34.689Z,9.26
2023-05-14T01:39:40.816Z,9.40
2023-05-14T01:42:45.818Z,9.28
2023-05-14T01:45:49.293Z,9.29
2023-05-14T01:48:52.835Z,9.35
2023-05-14T01:51:56.319Z,9.30
2023-05-14T01:55:01.320Z,9.07
2023-05-14T01:58:04.788Z,8.91
2023-05-14T02:01:08.418Z,9.10
2023-05-14T02:04:11.934Z,8.96
2023-05-14T02:07:15.526Z,8.82
2023-05-14T02:10:20.800Z,8.87
2023-05-14T02:13:24.558Z,9.00
2023-05-14T02:16:28.155Z,8.78
2023-05-14T02:19:32.071Z,8.81
2023-05-14T02:22:35.585Z,8.93
2023-05-14T02:25:40.637Z,8.87
2023-05-14T02:28:44.432Z,8.89
2023-05-14T02:31:49.114Z,8.72
2023-05-14T02:34:52.684Z,8.62
2023-05-14T02:37:56.317Z,8.64
2023-05-14T02:41:01.196Z,8.75
2023-05-14T02:44:04.812Z,8.72
2023-05-14T02:47:08.496Z,8.68
2023-05-14T02:50:12.396Z,8.70
2023-05-14T02:53:15.965Z,8.78
2023-05-14T02:56:21.154Z,8.71
2023-05-14T02:59:25.814Z,8.68
2023-05-14T03:02:29.874Z,8.69
2023-05-14T03:05:33.992Z,8.62
2023-05-14T03:08:37.530Z,8.66
2023-05-14T03:11:42.489Z,8.69
2023-05-14T03:14:45.992Z,8.68
2023-05-14T03:17:49.496Z,8.81
2023-05-14T03:20:53.121Z,8.99
2023-05-14T03:23:56.835Z,9.01
2023-05-14T03:27:01.768Z,9.06
2023-05-14T03:30:06.544Z,9.05
2023-05-14T03:33:10.155Z,9.14
2023-05-14T03:36:13.629Z,9.26
2023-05-14T03:39:19.761Z,9.36
2023-05-14T03:42:24.677Z,9.37
2023-05-14T03:45:28.760Z,9.43
2023-05-14T03:48:32.340Z,9.50
2023-05-14T03:51:35.964Z,9.54
2023-05-14T03:54:41.351Z,9.55
2023-05-14T03:57:46.208Z,9.64
2023-05-14T04:00:49.998Z,9.57
2023-05-14T04:03:53.575Z,9.67
2023-05-14T04:06:57.201Z,9.77
2023-05-14T04:10:03.980Z,9.70
2023-05-14T04:13:09.346Z,10.04
2023-05-14T04:16:12.878Z,10.06
2023-05-14T04:19:16.552Z,10.16
2023-05-14T04:22:20.427Z,10.15
2023-05-14T04:25:24.177Z,10.22
2023-05-14T04:28:29.078Z,10.41
2023-05-14T04:31:32.930Z,10.45
2023-05-14T04:34:36.450Z,10.62
2023-05-14T04:37:40.522Z,10.60
2023-05-14T04:40:44.116Z,11.07
2023-05-14T04:43:51.583Z,11.42
2023-05-14T04:46:55.222Z,11.71
2023-05-14T04:49:58.994Z,11.73
2023-05-14T04:53:03.325Z,11.94
2023-05-14T04:56:07.502Z,12.11
2023-05-14T04:59:12.610Z,11.89
2023-05-14T05:02:16.224Z,12.18
2023-05-14T05:05:19.856Z,12.28
2023-05-14T05:08:23.433Z,12.35
2023-05-14T05:11:26.888Z,12.45
2023-05-14T05:14:31.831Z,12.60
2023-05-14T05:17:35.416Z,13.21
2023-05-14T05:20:38.981Z,13.11
2023-05-14T05:23:42.440Z,13.18
2023-05-14T05:26:46.197Z,13.40
2023-05-14T05:29:51.103Z,13.30
2023-05-14T05:32:57.073Z,13.71
2023-05-14T05:36:00.625Z,13.38
2023-05-14T05:39:04.330Z,13.93
2023-05-14T05:42:09.181Z,13.70
2023-05-14T05:45:15.881Z,13.60
2023-05-14T05:48:19.386Z,13.95
2023-05-14T05:51:22.980Z,13.93
2023-05-14T05:54:27.252Z,14.36
2023-05-14T05:57:30.800Z,14.76
2023-05-14T06:00:35.845Z,14.98
2023-05-14T06:03:39.476Z,15.05
2023-05-14T06:06:43.124Z,15.36
2023-05-14T06:09:46.645Z,15.16
2023-05-14T06:12:50.175Z,15.42
2023-05-14T06:15:55.395Z,15.68
2023-05-14T06:18:59.018Z,15.59
2023-05-14T06:22:03.001Z,15.58
2023-05-14T06:25:07.466Z,15.63
2023-05-14T06:28:11.300Z,15.52
2023-05-14T06:31:16.179Z,15.71
2023-05-14T06:34:19.704Z,15.54
2023-05-14T06:37:23.217Z,15.63
2023-05-14T06:40:26.829Z,16.19
2023-05-14T06:43:30.388Z,15.97
2023-05-14T06:46:35.408Z,15.99
2023-05-14T06:49:39.089Z,16.04
2023-05-14T06:52:43.718Z,16.38
2023-05-14T06:55:49.145Z,16.39
2023-05-14T06:58:52.644Z,16.51
2023-05-14T07:01:57.698Z,16.49
2023-05-14T07:05:01.946Z,17.09
2023-05-14T07:08:05.892Z,16.92
2023-05-14T07:11:09.376Z,16.94
2023-05-14T07:17:55.071Z,17.75
2023-05-14T07:20:58.683Z,18.11
2023-05-14T07:24:02.263Z,18.24
2023-05-14T07:27:06.616Z,18.44
2023-05-14T07:30:11.094Z,18.14
2023-05-14T07:33:16.023Z,17.83
2023-05-14T07:36:19.799Z,18.19
2023-05-14T07:39:23.924Z,19.15
2023-05-14T07:42:35.830Z,19.25
2023-05-14T07:45:40.652Z,19.36
2023-05-14T07:48:45.664Z,19.09
2023-05-14T07:51:49.175Z,19.33
2023-05-14T07:54:53.233Z,20.05
2023-05-14T07:57:56.866Z,19.15
2023-05-14T08:01:01.423Z,19.43
2023-05-14T08:04:06.700Z,19.13
2023-05-14T08:07:11.136Z,19.23
2023-05-14T08:10:14.816Z,20.07
2023-05-14T08:13:18.357Z,20.31
2023-05-14T08:16:21.956Z,20.81
2023-05-14T08:19:27.888Z,20.09
2023-05-14T08:22:31.406Z,19.28
2023-05-14T08:25:35.251Z,19.48
2023-05-14T08:28:39.068Z,19.17
2023-05-14T08:31:42.793Z,19.51
2023-05-14T08:34:47.763Z,19.80
2023-05-14T08:37:52.218Z,20.18
2023-05-14T08:40:59.044Z,20.73
2023-05-14T08:44:09.963Z,20.99
2023-05-14T08:47:19.074Z,20.78
2023-05-14T08:50:25.177Z,21.22
2023-05-14T08:53:29.356Z,21.08
2023-05-14T08:56:34.527Z,20.13
2023-05-14T08:59:38.699Z,20.25
2023-05-14T09:02:43.436Z,21.25
2023-05-14T09:05:52.599Z,21.00
2023-05-14T09:08:57.283Z,21.39
2023-05-14T09:12:02.580Z,21.85
2023-05-14T09:15:08.064Z,21.20
2023-05-14T09:18:11.889Z,21.21
2023-05-14T09:21:17.425Z,21.41
2023-05-14T09:24:22.668Z,20.82
2023-05-14T09:27:27.827Z,21.92
2023-05-14T09:30:31.820Z,21.62
2023-05-14T09:33:35.795Z,20.93
2023-05-14T09:36:40.764Z,21.63
2023-05-14T09:39:44.446Z,21.99
2023-05-14T09:42:49.481Z,21.20
2023-05-14T09:45:53.253Z,20.62
2023-05-14T09:48:57.681Z,20.72
2023-05-14T09:52:03.763Z,20.85
2023-05-14T09:55:08.735Z,21.32
2023-05-14T09:58:14.560Z,21.30
2023-05-14T10:01:21.224Z,21.21
2023-05-14T10:04:25.976Z,21.54
2023-05-14T10:07:38.106Z,21.25
2023-05-14T10:10:42.325Z,22.18
2023-05-14T10:13:56.107Z,22.27
2023-05-14T10:17:02.937Z,21.62
2023-05-14T10:20:12.054Z,21.83
2023-05-14T10:23:17.279Z,21.08
2023-05-14T10:26:23.809Z,20.60
2023-05-14T10:29:35.186Z,20.49
2023-05-14T10:32:41.907Z,20.30
2023-05-14T10:36:02.102Z,20.43
2023-05-14T10:39:09.982Z,20.29
2023-05-14T10:42:14.986Z,20.13
2023-05-14T10:45:30.513Z,20.12
2023-05-14T10:48:35.801Z,20.27
2023-05-14T10:51:39.411Z,21.08
2023-05-14T10:54:51.881Z,21.57
2023-05-14T10:57:55.380Z,21.67
2023-05-14T11:00:59.865Z,21.69
2023-05-14T11:04:06.030Z,21.04
2023-05-14T11:07:10.069Z,21.50
2023-05-14T11:10:18.011Z,21.69
2023-05-14T11:13:22.401Z,21.80
2023-05-14T11:16:30.832Z,22.19
2023-05-14T11:19:34.387Z,22.17
2023-05-14T11:22:40.262Z,21.81
2023-05-14T11:25:45.263Z,21.69
2023-05-14T11:28:49.052Z,21.67
2023-05-14T11:31:52.746Z,21.48
2023-05-14T11:34:56.466Z,21.70
2023-05-14T11:38:00.049Z,21.65
2023-05-14T11:41:05.755Z,21.83
2023-05-14T11:44:11.864Z,21.73
2023-05-14T11:47:15.720Z,21.65
2023-05-14T11:50:19.224Z,21.58
2023-05-14T11:53:28.085Z,21.81
2023-05-14T11:56:32.960Z,21.54
2023-05-14T11:59:36.737Z,21.71
2023-05-14T12:02:40.575Z,21.32
2023-05-14T12:05:58.160Z,21.66
2023-05-14T12:09:01.743Z,21.85
2023-05-14T12:12:12.941Z,21.78
2023-05-14T12:15:18.215Z,21.46
2023-05-14T12:18:25.068Z,22.25
2023-05-14T12:21:31.524Z,21.24
2023-05-14T12:24:35.070Z,20.72
2023-05-14T12:27:40.026Z,21.46
2023-05-14T12:30:43.532Z,21.31
2023-05-14T12:33:46.990Z,21.31
2023-05-14T12:36:50.538Z,21.12
2023-05-14T12:39:54.217Z,21.32
2023-05-14T12:42:59.118Z,21.48
2023-05-14T12:46:02.675Z,21.69
2023-05-14T12:49:06.969Z,20.89
2023-05-14T12:55:17.177Z,21.37
2023-05-14T12:58:22.264Z,21.36
2023-05-14T13:01:26.157Z,21.66
2023-05-14T13:04:30.045Z,22.12
2023-05-14T13:07:33.712Z,22.05
2023-05-14T13:10:37.411Z,22.28
2023-05-14T13:13:42.347Z,22.16
2023-05-14T13:16:45.969Z,20.59
2023-05-14T13:19:49.503Z,21.25
2023-05-14T13:22:52.985Z,21.17
2023-05-14T13:25:56.596Z,21.75
2023-05-14T13:29:01.543Z,21.93
2023-05-14T13:32:05.811Z,21.95
2023-05-14T13:35:10.363Z,20.94
2023-05-14T13:38:14.320Z,21.90
2023-05-14T13:41:17.801Z,22.14
2023-05-14T13:44:22.737Z,21.83
2023-05-14T13:47:29.853Z,21.38
2023-05-14T13:50:33.385Z,21.35
2023-05-14T13:53:36.900Z,21.44
2023-05-14T13:56:40.569Z,21.37
2023-05-14T13:59:47.166Z,21.39
2023-05-14T14:02:50.721Z,20.99
2023-05-14T14:05:55.131Z,21.41
2023-05-14T14:08:58.595Z,21.15
2023-05-14T14:12:02.212Z,20.85
2023-05-14T14:15:09.168Z,21.20
2023-05-14T14:18:12.773Z,21.08
2023-05-14T14:21:18.505Z,21.00
2023-05-14T14:24:22.417Z,20.85
2023-05-14T14:27:28.357Z,21.02
2023-05-14T14:30:34.675Z,21.17
2023-05-14T14:33:38.297Z,21.59
2023-05-14T14:36:41.844Z,21.55
2023-05-14T14:39:45.408Z,21.48
2023-05-14T14:42:48.868Z,21.77
2023-05-14T14:45:53.790Z,21.12
2023-05-14T14:48:57.308Z,21.66
2023-05-14T14:52:00.890Z,21.29
2023-05-14T14:55:04.614Z,21.22
2023-05-14T14:58:08.244Z,21.03
2023-05-14T15:01:13.198Z,21.25
2023-05-14T15:04:16.815Z,21.69
2023-05-14T15:07:22.206Z,21.66
2023-05-14T15:10:25.961Z,21.87
2023-05-14T15:13:29.498Z,22.09
2023-05-14T15:16:34.532Z,21.63
2023-05-14T15:19:38.152Z,21.38
2023-05-14T15:22:41.712Z,21.48
2023-05-14T15:25:45.492Z,21.37
2023-05-14T15:28:49.042Z,21.59
2023-05-14T15:31:54.012Z,21.17
2023-05-14T15:34:57.713Z,21.31
2023-05-14T15:38:01.200Z,21.44
2023-05-14T15:41:04.830Z,21.71
2023-05-14T15:44:08.642Z,21.55
2023-05-14T15:47:13.571Z,21.35
2023-05-14T15:50:17.127Z,21.16
2023-05-14T15:53:20.863Z,21.35
2023-05-14T15:56:24.378Z,21.91
2023-05-14T15:59:27.884Z,22.08
2023-05-14T16:02:33.410Z,20.97
2023-05-14T16:05:37.407Z,20.25
2023-05-14T16:08:40.893Z,19.78
2023-05-14T16:11:44.371Z,19.56
2023-05-14T16:14:47.932Z,19.39
2023-05-14T16:17:52.845Z,19.50
2023-05-14T16:20:56.577Z,19.01
2023-05-14T16:24:00.134Z,18.82
2023-05-14T16:27:03.678Z,18.73
2023-05-14T16:30:09.191Z,18.87
2023-05-14T16:33:14.098Z,18.60
2023-05-14T16:36:17.730Z,18.57
2023-05-14T16:39:21.896Z,18.76
2023-05-14T16:42:26.270Z,18.82
2023-05-14T16:45:29.966Z,18.55
2023-05-14T16:48:34.888Z,18.62
2023-05-14T16:51:43.001Z,18.55
2023-05-14T16:54:46.660Z,18.50
2023-05-14T16:57:50.322Z,18.55
2023-05-14T17:00:53.947Z,18.55
2023-05-14T17:08:02.241Z,18.51
2023-05-14T17:11:06.281Z,18.41
2023-05-14T17:14:12.225Z,18.32
2023-05-14T17:17:20.870Z,18.33
2023-05-14T17:20:27.242Z,18.25
2023-05-14T17:23:30.801Z,18.22
2023-05-14T17:26:34.550Z,18.25
2023-05-14T17:29:40.296Z,18.23
2023-05-14T17:32:43.910Z,18.16
2023-05-14T17:35:49.949Z,18.17
2023-05-14T17:38:53.635Z,18.28
2023-05-14T17:41:57.344Z,18.11
2023-05-14T17:45:03.226Z,18.01
2023-05-14T17:48:09.544Z,17.74
2023-05-14T17:51:14.681Z,17.54
2023-05-14T17:54:18.340Z,17.53
2023-05-14T17:57:22.846Z,17.50
2023-05-14T18:00:26.549Z,17.42
2023-05-14T18:03:30.465Z,17.49
2023-05-14T18:06:36.771Z,17.49
2023-05-14T18:09:40.270Z,17.34
2023-05-14T18:12:43.793Z,17.27
2023-05-14T18:15:48.390Z,17.22
2023-05-14T18:18:52.078Z,17.06
2023-05-14T18:21:57.005Z,16.94
2023-05-14T18:25:00.662Z,16.79
2023-05-14T18:28:04.459Z,16.74
2023-05-14T18:31:08.044Z,16.57
2023-05-14T18:34:11.811Z,16.55
2023-05-14T18:37:16.769Z,16.46
2023-05-14T18:40:20.772Z,16.29
2023-05-14T18:43:24.289Z,16.28
2023-05-14T18:46:27.838Z,16.10
2023-05-14T18:49:31.430Z,16.00
2023-05-14T18:52:38.072Z,16.00
2023-05-14T18:55:41.663Z,16.02
2023-05-14T18:58:45.269Z,15.98
2023-05-14T19:01:48.963Z,15.93
2023-05-14T19:04:53.275Z,15.88
2023-05-14T19:07:58.348Z,15.72
2023-05-14T19:11:01.909Z,15.55
2023-05-14T19:14:05.509Z,15.58
2023-05-14T19:17:09.382Z,15.60
2023-05-14T19:20:13.703Z,15.56
2023-05-14T19:23:18.596Z,15.49
2023-05-14T19:26:22.866Z,15.48
2023-05-14T19:29:26.317Z,15.41
2023-05-14T19:32:29.903Z,15.35
2023-05-14T19:35:33.397Z,15.17
2023-05-14T19:38:38.374Z,15.15
2023-05-14T19:41:41.818Z,15.16
2023-05-14T19:44:45.706Z,15.18
2023-05-14T19:47:49.253Z,15.07
2023-05-14T19:50:53.089Z,15.12
2023-05-14T19:53:57.970Z,15.10
2023-05-14T19:57:01.740Z,15.09
2023-05-14T20:00:09.126Z,15.04
2023-05-14T20:03:13.756Z,15.06
2023-05-14T20:06:18.548Z,14.87
2023-05-14T20:09:23.621Z,14.90
2023-05-14T20:12:27.807Z,14.88
2023-05-14T20:15:34.581Z,14.85
2023-05-14T20:18:39.260Z,14.69
2023-05-14T20:21:42.755Z,14.53
2023-05-14T20:24:47.707Z,14.44
2023-05-14T20:27:53.540Z,14.49
2023-05-14T20:30:58.993Z,14.42
2023-05-14T20:34:02.612Z,14.48
2023-05-14T20:37:08.123Z,14.52
2023-05-14T20:40:14.215Z,14.53
2023-05-14T20:43:17.870Z,14.46
2023-05-14T20:46:21.703Z,14.36
2023-05-14T20:49:25.570Z,14.39
2023-05-14T20:52:29.262Z,14.40
2023-05-14T20:55:34.319Z,14.33
2023-05-14T20:58:37.905Z,14.27
2023-05-14T21:01:42.676Z,14.33
2023-05-14T21:04:46.390Z,14.16
2023-05-14T21:07:50.013Z,14.23
2023-05-14T21:10:55.186Z,14.21
2023-05-14T21:13:59.502Z,14.20
2023-05-14T21:17:03.598Z,14.20
2023-05-14T21:20:08.864Z,14.17
2023-05-14T21:23:12.794Z,14.17
2023-05-14T21:26:19.219Z,14.12
2023-05-14T21:29:23.169Z,14.13
2023-05-14T21:32:26.748Z,14.06
2023-05-14T21:35:30.401Z,14.05
2023-05-14T21:38:33.913Z,14.05
2023-05-14T21:41:39.142Z,13.98
2023-05-14T21:44:42.601Z,13.68
2023-05-14T21:47:46.328Z,13.38
2023-05-14T21:50:49.901Z,13.36
2023-05-14T21:53:53.586Z,13.32
2023-05-14T21:56:58.637Z,13.32
2023-05-14T22:00:02.119Z,13.17
2023-05-14T22:03:05.830Z,13.18
2023-05-14T22:06:09.671Z,13.10
2023-05-14T22:09:13.207Z,13.06
2023-05-14T22:12:18.095Z,13.17
2023-05-14T22:15:21.895Z,13.16
2023-05-14T22:18:26.051Z,13.15
2023-05-14T22:21:30.378Z,13.02
2023-05-14T22:24:33.865Z,12.92
2023-05-14T22:27:38.896Z,12.79
2023-05-14T22:30:42.560Z,12.85
2023-05-14T22:33:46.038Z,12.74
2023-05-14T22:36:49.612Z,12.72
2023-05-14T22:39:53.129Z,12.77
2023-05-14T22:42:58.155Z,12.67
2023-05-14T22:46:01.877Z,12.65
2023-05-14T22:49:05.980Z,12.61
2023-05-14T22:52:09.999Z,12.38
2023-05-14T22:55:13.693Z,12.30
2023-05-14T22:58:18.715Z,12.21
2023-05-14T23:01:22.321Z,12.23
2023-05-14T23:04:26.246Z,12.12
2023-05-14T23:07:29.997Z,12.11
2023-05-14T23:10:33.747Z,11.93
2023-05-14T23:13:38.899Z,11.89
2023-05-14T23:16:42.386Z,12.00
2023-05-14T23:19:45.976Z,11.94
2023-05-14T23:22:49.631Z,11.81
2023-05-14T23:25:53.569Z,11.68
2023-05-14T23:28:58.443Z,11.64
2023-05-14T23:32:02.137Z,11.55
2023-05-14T23:35:06.760Z,11.36
2023-05-14T23:38:10.532Z,11.33
2023-05-14T23:41:14.028Z,11.21
2023-05-14T23:44:18.999Z,11.15
2023-05-14T23:47:22.565Z,11.15
2023-05-14T23:50:26.493Z,11.05
2023-05-14T23:53:29.923Z,11.02
2023-05-14T23:56:33.811Z,11.13
2023-05-14T23:59:40.136Z,11.15
